createdAt,value
2022-07-29T00:00:24.475Z,101382.08
2022-07-29T00:01:28.926Z,101384.77
2022-07-29T00:02:33.454Z,101377.58
2022-07-29T00:03:41.381Z,101386.61
2022-07-29T00:04:46.062Z,101385.26
2022-07-29T00:05:50.472Z,101385.67
2022-07-29T00:06:54.872Z,101393.34
2022-07-29T00:07:59.308Z,101390.16
2022-07-29T00:09:03.730Z,101385.78
2022-07-29T00:10:08.124Z,101388.38
2022-07-29T00:11:12.522Z,101386.61
2022-07-29T00:12:25.812Z,101386.19
2022-07-29T00:13:34.132Z,101385.78
2022-07-29T00:14:38.830Z,101378.18
2022-07-29T00:15:47.730Z,101378.59
2022-07-29T00:16:52.356Z,101380.54
2022-07-29T00:17:56.927Z,101379.11
2022-07-29T00:19:03.584Z,101386.69
2022-07-29T00:20:08.412Z,101382.15
2022-07-29T00:21:12.790Z,101385.78
2022-07-29T00:22:17.286Z,101382.23
2022-07-29T00:23:21.706Z,101384.59
2022-07-29T00:24:26.113Z,101381.89
2022-07-29T00:25:31.749Z,101381.4
2022-07-29T00:26:38.304Z,101382.41
2022-07-29T00:27:42.730Z,101379.61
2022-07-29T00:28:47.109Z,101380.54
2022-07-29T00:29:51.510Z,101376.16
2022-07-29T00:30:55.920Z,101377.58
2022-07-29T00:32:00.578Z,101375.22
2022-07-29T00:33:09.947Z,101382.48
2022-07-29T00:34:15.054Z,101381.55
2022-07-29T00:35:19.974Z,101382.08
2022-07-29T00:36:24.369Z,101378.44
2022-07-29T00:37:28.779Z,101378.86
2022-07-29T00:38:33.175Z,101381.22
2022-07-29T00:39:37.567Z,101379.04
2022-07-29T00:40:45.115Z,101381.22
2022-07-29T00:41:49.526Z,101373.2
2022-07-29T00:42:53.972Z,101382.15
2022-07-29T00:43:58.389Z,101375.56
2022-07-29T00:45:02.796Z,101378.26
2022-07-29T00:46:07.202Z,101379.61
2022-07-29T00:47:11.899Z,101374.21
2022-07-29T00:48:16.382Z,101369.42
2022-07-29T00:49:20.979Z,101375.67
2022-07-29T00:50:25.588Z,101373.05
2022-07-29T00:51:30.169Z,101367.99
2022-07-29T00:52:34.564Z,101372.53
2022-07-29T00:53:39.013Z,101368.07
2022-07-29T00:54:45.840Z,101371.7
2022-07-29T00:55:50.314Z,101374.32
2022-07-29T00:56:56.771Z,101376.16
2022-07-29T00:58:01.170Z,101371.36
2022-07-29T00:59:05.601Z,101373.31
2022-07-29T01:00:10.026Z,101373.31
2022-07-29T01:01:14.564Z,101378.59
2022-07-29T01:02:19.277Z,101384.92
2022-07-29T01:03:23.810Z,101374.66
2022-07-29T01:04:28.227Z,101376.91
2022-07-29T01:05:52.239Z,101381.81
2022-07-29T01:06:56.624Z,101382.75
2022-07-29T01:08:01.095Z,101385
2022-07-29T01:09:07.103Z,101376.5
2022-07-29T01:10:11.483Z,101378.78
2022-07-29T01:11:15.900Z,101378.44
2022-07-29T01:12:20.434Z,101382.56
2022-07-29T01:13:24.881Z,101379.37
2022-07-29T01:14:29.279Z,101379.37
2022-07-29T01:15:33.683Z,101374.06
2022-07-29T01:16:40.328Z,101366.72
2022-07-29T01:17:54.734Z,101372.53
2022-07-29T01:18:59.281Z,101372.45
2022-07-29T01:20:03.725Z,101372.97
2022-07-29T01:21:08.150Z,101373.13
2022-07-29T01:22:12.655Z,101373.13
2022-07-29T01:23:17.088Z,101372.79
2022-07-29T01:24:21.476Z,101369.6
2022-07-29T01:25:26.755Z,101371.36
2022-07-29T01:26:33.530Z,101380.88
2022-07-29T01:27:40.381Z,101374.14
2022-07-29T01:28:48.358Z,101381.47
2022-07-29T01:29:56.369Z,101375.22
2022-07-29T01:31:04.106Z,101373.88
2022-07-29T01:32:29.936Z,101370.77
2022-07-29T01:33:34.500Z,101368.93
2022-07-29T01:34:39.751Z,101369.34
2022-07-29T01:35:44.165Z,101373.88
2022-07-29T01:36:49.601Z,101370.54
2022-07-29T01:37:54.375Z,101366.39
2022-07-29T01:38:58.785Z,101363.8
2022-07-29T01:40:03.202Z,101363.28
2022-07-29T01:41:08.647Z,101365.45
2022-07-29T01:42:13.048Z,101355.19
2022-07-29T01:43:17.438Z,101355.11
2022-07-29T01:44:21.828Z,101350.81
2022-07-29T01:45:26.240Z,101358.3
2022-07-29T01:46:30.784Z,101349.05
2022-07-29T01:47:36.949Z,101354.85
2022-07-29T01:48:41.479Z,101356.2
2022-07-29T01:49:45.940Z,101356.72
2022-07-29T01:50:50.574Z,101355.19
2022-07-29T01:51:54.998Z,101359.64
2022-07-29T01:52:59.450Z,101358.07
2022-07-29T01:54:03.841Z,101358.56
2022-07-29T01:55:08.213Z,101363.13
2022-07-29T01:56:12.588Z,101357.81
2022-07-29T01:57:17.028Z,101359.08
2022-07-29T01:58:21.433Z,101365.64
2022-07-29T01:59:25.851Z,101358.56
2022-07-29T02:00:30.865Z,101359.64
2022-07-29T02:01:35.432Z,101361.85
2022-07-29T02:02:40.000Z,101364.63
2022-07-29T02:03:44.422Z,101361.52
2022-07-29T02:04:48.948Z,101356.53
2022-07-29T02:05:55.635Z,101354.36
2022-07-29T02:07:00.108Z,101353.84
2022-07-29T02:08:04.538Z,101349.45
2022-07-29T02:09:09.543Z,101349.45
2022-07-29T02:10:13.949Z,101347.62
2022-07-29T02:11:18.345Z,101341.78
2022-07-29T02:12:22.832Z,101336.84
2022-07-29T02:13:27.335Z,101340.44
2022-07-29T02:14:31.748Z,101337.33
2022-07-29T02:15:36.192Z,101335.57
2022-07-29T02:16:40.712Z,101327.14
2022-07-29T02:17:45.097Z,101330.17
2022-07-29T02:18:49.798Z,101333.28
2022-07-29T02:19:55.083Z,101324.38
2022-07-29T02:20:59.500Z,101335.91
2022-07-29T02:22:03.935Z,101335.64
2022-07-29T02:23:08.367Z,101338.41
2022-07-29T02:24:13.165Z,101327.74
2022-07-29T02:25:18.528Z,101339.27
2022-07-29T02:26:23.830Z,101321.91
2022-07-29T02:27:28.284Z,101325.88
2022-07-29T02:28:32.896Z,101328.08
2022-07-29T02:29:37.321Z,101328.64
2022-07-29T02:30:41.734Z,101328.49
2022-07-29T02:31:47.177Z,101336.16
2022-07-29T02:32:51.561Z,101342.64
2022-07-29T02:33:56.026Z,101344.14
2022-07-29T02:35:00.422Z,101348.38
2022-07-29T02:36:04.825Z,101342.38
2022-07-29T02:37:09.227Z,101342.05
2022-07-29T02:38:13.607Z,101347.62
2022-07-29T02:39:18.013Z,101346.69
2022-07-29T02:40:22.431Z,101344.48
2022-07-29T02:41:26.823Z,101345.94
2022-07-29T02:42:34.135Z,101350.47
2022-07-29T02:43:38.566Z,101348.11
2022-07-29T02:44:42.962Z,101344.66
2022-07-29T02:45:52.963Z,101345.83
2022-07-29T02:46:57.460Z,101346.16
2022-07-29T02:48:01.950Z,101343.99
2022-07-29T02:49:06.666Z,101333.13
2022-07-29T02:50:12.252Z,101340.77
2022-07-29T02:51:45.544Z,101334.48
2022-07-29T02:52:49.977Z,101338.41
2022-07-29T02:53:55.155Z,101334.71
2022-07-29T02:54:59.588Z,101335.05
2022-07-29T02:56:03.981Z,101335.91
2022-07-29T02:57:08.386Z,101338.6
2022-07-29T02:58:12.785Z,101331.52
2022-07-29T02:59:17.181Z,101325.61
2022-07-29T03:00:21.614Z,101327.48
2022-07-29T03:01:26.180Z,101331.11
2022-07-29T03:02:33.047Z,101332.45
2022-07-29T03:03:37.659Z,101329.31
2022-07-29T03:04:42.163Z,101331.94
2022-07-29T03:05:46.620Z,101332.69
2022-07-29T03:06:51.051Z,101331.52
2022-07-29T03:07:55.455Z,101328.91
2022-07-29T03:08:59.960Z,101332.61
2022-07-29T03:10:04.375Z,101334.97
2022-07-29T03:11:14.481Z,101326.06
2022-07-29T03:12:18.866Z,101319.39
2022-07-29T03:13:23.274Z,101316.62
2022-07-29T03:14:27.673Z,101318.88
2022-07-29T03:15:32.079Z,101321.16
2022-07-29T03:16:42.209Z,101314.5
2022-07-29T03:17:46.732Z,101322.58
2022-07-29T03:18:51.175Z,101324.38
2022-07-29T03:19:55.653Z,101322.5
2022-07-29T03:21:00.041Z,101317.11
2022-07-29T03:22:04.471Z,101318.8
2022-07-29T03:23:08.848Z,101318.88
2022-07-29T03:24:13.407Z,101320.33
2022-07-29T03:25:18.443Z,101328.42
2022-07-29T03:26:22.819Z,101320.81
2022-07-29T03:27:27.197Z,101322.17
2022-07-29T03:28:32.771Z,101321.75
2022-07-29T03:29:40.826Z,101319.06
2022-07-29T03:30:54.077Z,101325.28
2022-07-29T03:32:00.301Z,101320.89
2022-07-29T03:33:14.340Z,101324.53
2022-07-29T03:34:19.440Z,101314.27
2022-07-29T03:35:27.849Z,101323.1
2022-07-29T03:36:32.276Z,101324.53
2022-07-29T03:37:36.686Z,101325.38
2022-07-29T03:38:41.125Z,101328.16
2022-07-29T03:39:45.767Z,101330.44
2022-07-29T03:40:50.155Z,101328.23
2022-07-29T03:41:54.576Z,101329.17
2022-07-29T03:42:59.046Z,101330.92
2022-07-29T03:44:03.528Z,101330.09
2022-07-29T03:45:07.935Z,101332.27
2022-07-29T03:46:12.538Z,101330.59
2022-07-29T03:47:17.085Z,101329.34
2022-07-29T03:48:21.641Z,101331.86
2022-07-29T03:49:26.266Z,101324.7
2022-07-29T03:50:30.820Z,101326.06
2022-07-29T03:51:35.484Z,101332.8
2022-07-29T03:52:39.894Z,101330.52
2022-07-29T03:53:48.651Z,101331.45
2022-07-29T03:54:53.047Z,101332.88
2022-07-29T03:55:57.472Z,101332.05
2022-07-29T03:57:01.872Z,101333.39
2022-07-29T03:58:06.253Z,101337.77
2022-07-29T03:59:10.713Z,101329.17
2022-07-29T04:00:15.125Z,101333.2
2022-07-29T04:01:19.687Z,101338.19
2022-07-29T04:02:30.633Z,101337.25
2022-07-29T04:03:35.432Z,101337.77
2022-07-29T04:04:39.944Z,101343.23
2022-07-29T04:05:44.431Z,101342.37
2022-07-29T04:06:49.461Z,101345.94
2022-07-29T04:07:53.860Z,101344.06
2022-07-29T04:08:58.535Z,101346.27
2022-07-29T04:10:05.559Z,101344.92
2022-07-29T04:11:10.152Z,101346.27
2022-07-29T04:12:14.595Z,101341.38
2022-07-29T04:13:18.990Z,101342.23
2022-07-29T04:14:23.382Z,101345.86
2022-07-29T04:15:32.515Z,101341.81
2022-07-29T04:16:37.090Z,101350.73
2022-07-29T04:17:41.569Z,101350.31
2022-07-29T04:18:45.962Z,101344.92
2022-07-29T04:19:50.374Z,101350.31
2022-07-29T04:20:54.773Z,101349.98
2022-07-29T04:21:59.176Z,101353.5
2022-07-29T04:23:03.598Z,101348.55
2022-07-29T04:24:07.996Z,101352.08
2022-07-29T04:25:12.380Z,101353.95
2022-07-29T04:26:16.864Z,101351.66
2022-07-29T04:27:22.142Z,101359.64
2022-07-29T04:28:26.575Z,101352.41
2022-07-29T04:29:30.979Z,101356.87
2022-07-29T04:30:35.441Z,101358.63
2022-07-29T04:31:39.947Z,101360.42
2022-07-29T04:32:44.468Z,101351.89
2022-07-29T04:33:48.852Z,101359.08
2022-07-29T04:34:53.230Z,101357.28
2022-07-29T04:35:57.641Z,101359.08
2022-07-29T04:37:02.453Z,101358.22
2022-07-29T04:38:06.845Z,101361.84
2022-07-29T04:39:23.701Z,101360.58
2022-07-29T04:40:30.604Z,101363.19
2022-07-29T04:41:35.605Z,101362.86
2022-07-29T04:42:47.772Z,101361.51
2022-07-29T04:43:53.046Z,101361.43
2022-07-29T04:44:57.590Z,101358.22
2022-07-29T04:46:08.301Z,101361.17
2022-07-29T04:47:12.897Z,101357.88
2022-07-29T04:48:17.296Z,101358.22
2022-07-29T04:49:21.819Z,101354.59
2022-07-29T04:50:26.335Z,101352.75
2022-07-29T04:51:30.716Z,101354.09
2022-07-29T04:52:35.147Z,101356.79
2022-07-29T04:53:39.535Z,101360.31
2022-07-29T04:54:43.943Z,101353.16
2022-07-29T04:55:48.360Z,101358.41
2022-07-29T04:56:52.760Z,101352.16
2022-07-29T04:57:57.180Z,101359.9
2022-07-29T04:59:04.910Z,101357.8
2022-07-29T05:00:09.403Z,101354.92
2022-07-29T05:01:13.973Z,101354.09
2022-07-29T05:02:18.638Z,101351.89
2022-07-29T05:03:23.205Z,101355.86
2022-07-29T05:04:27.626Z,101349.98
2022-07-29T05:05:32.006Z,101351.33
2022-07-29T05:06:36.475Z,101351.66
2022-07-29T05:07:40.860Z,101352.23
2022-07-29T05:08:45.253Z,101351.41
2022-07-29T05:09:49.686Z,101352.67
2022-07-29T05:10:54.543Z,101350.05
2022-07-29T05:11:58.940Z,101344.66
2022-07-29T05:13:03.650Z,101347.28
2022-07-29T05:14:08.312Z,101344.59
2022-07-29T05:15:12.810Z,101346.84
2022-07-29T05:16:17.402Z,101345
2022-07-29T05:17:21.921Z,101350.66
2022-07-29T05:18:27.347Z,101348.03
2022-07-29T05:19:31.724Z,101348.45
2022-07-29T05:20:36.114Z,101346.61
2022-07-29T05:21:40.536Z,101349.72
2022-07-29T05:22:44.957Z,101349.72
2022-07-29T05:23:49.368Z,101351.41
2022-07-29T05:24:53.809Z,101352.75
2022-07-29T05:25:58.223Z,101355.78
2022-07-29T05:27:02.614Z,101349.2
2022-07-29T05:28:07.017Z,101357.2
2022-07-29T05:29:45.972Z,101353.58
2022-07-29T05:30:50.950Z,101354.36
2022-07-29T05:31:55.941Z,101351.73
2022-07-29T05:33:00.352Z,101354.92
2022-07-29T05:34:04.772Z,101357.06
2022-07-29T05:35:09.182Z,101359.41
2022-07-29T05:36:13.627Z,101350.88
2022-07-29T05:37:18.042Z,101357.13
2022-07-29T05:38:22.456Z,101361.92
2022-07-29T05:39:50.779Z,101355.11
2022-07-29T05:41:02.577Z,101350.88
2022-07-29T05:42:06.939Z,101360.32
2022-07-29T05:43:11.358Z,101354.93
2022-07-29T05:44:16.734Z,101350.31
2022-07-29T05:45:21.858Z,101353.02
2022-07-29T05:46:26.449Z,101352.91
2022-07-29T05:47:31.116Z,101342.45
2022-07-29T05:48:35.731Z,101336.99
2022-07-29T05:49:40.255Z,101344.66
2022-07-29T05:50:45.206Z,101347.85
2022-07-29T05:51:49.630Z,101335.56
2022-07-29T05:52:54.036Z,101345.83
2022-07-29T05:53:58.470Z,101339.09
2022-07-29T05:55:02.863Z,101338.19
2022-07-29T05:56:07.301Z,101336.91
2022-07-29T05:57:11.734Z,101332.8
2022-07-29T05:58:16.214Z,101337.25
2022-07-29T05:59:20.643Z,101334.45
2022-07-29T06:00:25.061Z,101334.45
2022-07-29T06:01:29.781Z,101331.59
2022-07-29T06:02:34.333Z,101337.66
2022-07-29T06:03:38.751Z,101334.45
2022-07-29T06:04:43.368Z,101331.67
2022-07-29T06:05:47.899Z,101336.65
2022-07-29T06:06:52.327Z,101327.22
2022-07-29T06:07:56.729Z,101331.34
2022-07-29T06:09:14.325Z,101330.84
2022-07-29T06:10:18.811Z,101331.59
2022-07-29T06:11:27.207Z,101329.23
2022-07-29T06:12:31.578Z,101327.81
2022-07-29T06:13:35.998Z,101330.5
2022-07-29T06:14:40.443Z,101326.88
2022-07-29T06:15:44.975Z,101324.18
2022-07-29T06:16:49.676Z,101329.73
2022-07-29T06:18:01.824Z,101331.33
2022-07-29T06:19:06.790Z,101336.23
2022-07-29T06:20:15.172Z,101327.96
2022-07-29T06:21:19.760Z,101324.59
2022-07-29T06:22:24.161Z,101331.67
2022-07-29T06:23:28.543Z,101335.03
2022-07-29T06:24:32.990Z,101331.52
2022-07-29T06:25:37.418Z,101332.75
2022-07-29T06:26:41.816Z,101330.39
2022-07-29T06:27:46.231Z,101336.23
2022-07-29T06:28:51.573Z,101337.58
2022-07-29T06:29:55.966Z,101330.73
2022-07-29T06:31:00.553Z,101335.11
2022-07-29T06:32:05.016Z,101329.72
2022-07-29T06:33:09.431Z,101332.86
2022-07-29T06:34:14.738Z,101330.5
2022-07-29T06:35:46.697Z,101332.67
2022-07-29T06:36:58.672Z,101333.01
2022-07-29T06:38:30.629Z,101331.47
2022-07-29T06:39:37.795Z,101334.62
2022-07-29T06:40:42.875Z,101334.36
2022-07-29T06:41:47.276Z,101329.22
2022-07-29T06:42:51.664Z,101330.73
2022-07-29T06:43:58.023Z,101328.29
2022-07-29T06:45:09.254Z,101336.38
2022-07-29T06:46:13.963Z,101334.02
2022-07-29T06:47:18.451Z,101332.25
2022-07-29T06:48:22.844Z,101324.66
2022-07-29T06:49:27.410Z,101338.66
2022-07-29T06:50:31.999Z,101330.31
2022-07-29T06:51:36.411Z,101329.71
2022-07-29T06:52:40.818Z,101329.71
2022-07-29T06:54:02.186Z,101336.72
2022-07-29T06:55:08.077Z,101332.67
2022-07-29T06:56:12.526Z,101328.55
2022-07-29T06:57:16.944Z,101324.84
2022-07-29T06:58:21.343Z,101329.38
2022-07-29T06:59:36.229Z,101331.99
2022-07-29T07:00:40.671Z,101327.42
2022-07-29T07:01:45.268Z,101327.42
2022-07-29T07:02:50.124Z,101324.57
2022-07-29T07:03:54.684Z,101328.54
2022-07-29T07:04:59.077Z,101326.52
2022-07-29T07:06:03.489Z,101332.47
2022-07-29T07:07:07.892Z,101327.41
2022-07-29T07:08:12.295Z,101325.8
2022-07-29T07:09:16.717Z,101326.23
2022-07-29T07:10:21.137Z,101329.84
2022-07-29T07:11:27.477Z,101334.07
2022-07-29T07:12:31.951Z,101333.13
2022-07-29T07:13:37.760Z,101336.85
2022-07-29T07:14:42.143Z,101335.61
2022-07-29T07:15:46.564Z,101330.38
2022-07-29T07:16:53.734Z,101327.61
2022-07-29T07:17:59.272Z,101324.31
2022-07-29T07:19:03.945Z,101321.02
2022-07-29T07:20:10.021Z,101322.22
2022-07-29T07:21:20.092Z,101318.52
2022-07-29T07:22:24.732Z,101317.76
2022-07-29T07:23:29.204Z,101326.94
2022-07-29T07:24:33.668Z,101324.72
2022-07-29T07:25:39.855Z,101329.5
2022-07-29T07:26:44.277Z,101323.28
2022-07-29T07:27:48.686Z,101318.49
2022-07-29T07:28:53.053Z,101318.15
2022-07-29T07:29:57.492Z,101318.64
2022-07-29T07:31:01.893Z,101315.45
2022-07-29T07:32:06.565Z,101317.14
2022-07-29T07:33:10.977Z,101315.34
2022-07-29T07:34:16.070Z,101314.25
2022-07-29T07:35:31.664Z,101315.27
2022-07-29T07:36:36.060Z,101313.31
2022-07-29T07:37:40.475Z,101325.04
2022-07-29T07:38:44.871Z,101320.91
2022-07-29T07:39:49.271Z,101317.7
2022-07-29T07:40:53.693Z,101314.51
2022-07-29T07:41:58.076Z,101320.52
2022-07-29T07:43:02.546Z,101319.23
2022-07-29T07:44:08.308Z,101314.09
2022-07-29T07:45:19.249Z,101316.27
2022-07-29T07:46:23.865Z,101313.65
2022-07-29T07:47:29.085Z,101319.16
2022-07-29T07:48:37.744Z,101319.23
2022-07-29T07:49:42.963Z,101315.78
2022-07-29T07:50:49.562Z,101314.19
2022-07-29T07:51:54.286Z,101315.86
2022-07-29T07:52:58.967Z,101317.22
2022-07-29T07:54:03.807Z,101312.83
2022-07-29T07:55:08.294Z,101310.05
2022-07-29T07:56:13.884Z,101320.16
2022-07-29T07:57:18.301Z,101318.89
2022-07-29T07:58:25.255Z,101323.36
2022-07-29T07:59:29.667Z,101321.17
2022-07-29T08:00:34.083Z,101322.55
2022-07-29T08:01:57.178Z,101319.5
2022-07-29T08:03:02.339Z,101322.02
2022-07-29T08:04:28.342Z,101331.11
2022-07-29T08:05:34.681Z,101333.72
2022-07-29T08:06:43.736Z,101329.48
2022-07-29T08:07:48.109Z,101335.15
2022-07-29T08:08:56.215Z,101333.88
2022-07-29T08:10:30.107Z,101337.59
2022-07-29T08:11:38.760Z,101334.66
2022-07-29T08:12:56.470Z,101337.92
2022-07-29T08:14:00.850Z,101337.7
2022-07-29T08:15:05.252Z,101336.76
2022-07-29T08:16:09.821Z,101340.96
2022-07-29T08:17:14.320Z,101336.91
2022-07-29T08:18:18.738Z,101346.28
2022-07-29T08:19:25.342Z,101348.04
2022-07-29T08:20:29.762Z,101347.47
2022-07-29T08:21:34.227Z,101346.13
2022-07-29T08:22:38.619Z,101344.69
2022-07-29T08:23:51.605Z,101344.53
2022-07-29T08:25:04.221Z,101342.82
2022-07-29T08:26:08.672Z,101340.88
2022-07-29T08:27:43.659Z,101343.25
2022-07-29T08:28:48.382Z,101342.64
2022-07-29T08:29:52.800Z,101342.16
2022-07-29T08:30:57.212Z,101339.52
2022-07-29T08:32:02.034Z,101340.27
2022-07-29T08:33:07.602Z,101339.53
2022-07-29T08:34:11.998Z,101338.11
2022-07-29T08:35:16.423Z,101339.03
2022-07-29T08:36:20.806Z,101342.22
2022-07-29T08:37:25.323Z,101337.34
2022-07-29T08:38:29.726Z,101344.18
2022-07-29T08:39:36.696Z,101337.17
2022-07-29T08:40:41.072Z,101339.27
2022-07-29T08:41:58.480Z,101337.25
2022-07-29T08:43:03.174Z,101344.43
2022-07-29T08:44:09.948Z,101346.27
2022-07-29T08:45:14.384Z,101337.16
2022-07-29T08:46:18.955Z,101339.52
2022-07-29T08:47:23.451Z,101342.97
2022-07-29T08:48:27.838Z,101337.58
2022-07-29T08:49:32.217Z,101341.42
2022-07-29T08:50:36.631Z,101342.84
2022-07-29T08:51:50.517Z,101345.47
2022-07-29T08:53:00.626Z,101342.55
2022-07-29T08:54:05.086Z,101345.63
2022-07-29T08:55:09.513Z,101343.18
2022-07-29T08:56:13.938Z,101344.45
2022-07-29T08:57:18.879Z,101348.8
2022-07-29T08:58:26.078Z,101347.45
2022-07-29T08:59:32.388Z,101338.87
2022-07-29T09:00:39.584Z,101342.25
2022-07-29T09:01:48.145Z,101345.44
2022-07-29T09:02:52.835Z,101342.48
2022-07-29T09:03:57.801Z,101337.84
2022-07-29T09:05:03.030Z,101340.8
2022-07-29T09:06:07.446Z,101338.03
2022-07-29T09:07:11.858Z,101338.44
2022-07-29T09:08:16.286Z,101343.25
2022-07-29T09:09:20.710Z,101337.42
2022-07-29T09:10:25.140Z,101331.84
2022-07-29T09:11:29.600Z,101342.56
2022-07-29T09:12:39.186Z,101336.24
2022-07-29T09:13:43.653Z,101340.23
2022-07-29T09:14:48.078Z,101331.9
2022-07-29T09:15:52.448Z,101335.75
2022-07-29T09:16:57.016Z,101339.45
2022-07-29T09:18:02.129Z,101343.84
2022-07-29T09:19:06.530Z,101336.83
2022-07-29T09:20:10.964Z,101340.48
2022-07-29T09:21:15.421Z,101340.14
2022-07-29T09:22:19.828Z,101340.7
2022-07-29T09:23:25.842Z,101337.85
2022-07-29T09:24:31.283Z,101346.09
2022-07-29T09:25:38.219Z,101337.51
2022-07-29T09:26:42.641Z,101341.21
2022-07-29T09:27:47.169Z,101342.82
2022-07-29T09:28:51.548Z,101343.83
2022-07-29T09:29:55.964Z,101337.33
2022-07-29T09:31:01.118Z,101339.2
2022-07-29T09:32:05.688Z,101337.33
2022-07-29T09:33:10.297Z,101327.05
2022-07-29T09:34:14.714Z,101329.05
2022-07-29T09:35:19.134Z,101331.56
2022-07-29T09:36:23.535Z,101328.12
2022-07-29T09:37:28.782Z,101329.14
2022-07-29T09:38:33.169Z,101337.58
2022-07-29T09:39:37.565Z,101330.34
2022-07-29T09:40:41.948Z,101332.55
2022-07-29T09:41:46.345Z,101332.05
2022-07-29T09:42:50.746Z,101331.52
2022-07-29T09:43:55.172Z,101331.09
2022-07-29T09:44:59.577Z,101329.06
2022-07-29T09:46:04.008Z,101323.75
2022-07-29T09:47:12.694Z,101313.03
2022-07-29T09:48:17.158Z,101320.8
2022-07-29T09:49:21.770Z,101316.08
2022-07-29T09:50:26.292Z,101317.09
2022-07-29T09:51:39.544Z,101316.53
2022-07-29T09:52:43.956Z,101314.59
2022-07-29T09:53:48.369Z,101314.83
2022-07-29T09:54:52.745Z,101311.41
2022-07-29T09:55:57.185Z,101308.09
2022-07-29T09:57:01.605Z,101307.25
2022-07-29T09:58:05.994Z,101316.68
2022-07-29T09:59:10.394Z,101303.12
2022-07-29T10:00:14.786Z,101306.66
2022-07-29T10:01:19.516Z,101302.88
2022-07-29T10:02:24.940Z,101306.4
2022-07-29T10:03:29.575Z,101308.73
2022-07-29T10:04:34.046Z,101310.18
2022-07-29T10:05:38.463Z,101314.58
2022-07-29T10:06:42.871Z,101310.18
2022-07-29T10:07:53.822Z,101311.11
2022-07-29T10:09:01.047Z,101307.85
2022-07-29T10:10:05.493Z,101305.55
2022-07-29T10:11:09.879Z,101306.75
2022-07-29T10:12:14.318Z,101298.72
2022-07-29T10:13:18.710Z,101297.17
2022-07-29T10:14:25.689Z,101296.05
2022-07-29T10:15:30.118Z,101289.54
2022-07-29T10:16:34.718Z,101290.8
2022-07-29T10:17:42.877Z,101289.26
2022-07-29T10:18:47.822Z,101290.07
2022-07-29T10:19:52.246Z,101290.58
2022-07-29T10:20:56.639Z,101293.15
2022-07-29T10:22:01.772Z,101285.92
2022-07-29T10:23:06.838Z,101289.38
2022-07-29T10:24:16.073Z,101288.55
2022-07-29T10:25:20.496Z,101290.64
2022-07-29T10:26:24.856Z,101291.41
2022-07-29T10:27:34.000Z,101286.26
2022-07-29T10:28:38.487Z,101288.7
2022-07-29T10:29:42.881Z,101287.67
2022-07-29T10:30:47.260Z,101289.78
2022-07-29T10:31:51.821Z,101280.52
2022-07-29T10:32:56.371Z,101276.48
2022-07-29T10:34:02.287Z,101283.15
2022-07-29T10:35:06.680Z,101275.78
2022-07-29T10:36:12.428Z,101277.58
2022-07-29T10:37:20.564Z,101271.45
2022-07-29T10:38:25.880Z,101276.23
2022-07-29T10:39:48.997Z,101273.69
2022-07-29T10:40:58.335Z,101273
2022-07-29T10:42:04.684Z,101270.77
2022-07-29T10:43:16.870Z,101273.47
2022-07-29T12:08:14.574Z,101226.67
2022-07-29T12:09:21.647Z,101216.91
2022-07-29T12:10:31.848Z,101220.19
2022-07-29T12:11:37.885Z,101220.35
2022-07-29T12:12:46.951Z,101223.3
2022-07-29T12:13:52.147Z,101221.73
2022-07-29T12:14:56.562Z,101215.12
2022-07-29T12:16:03.352Z,101213.16
2022-07-29T12:17:07.927Z,101217.38
2022-07-29T12:18:13.087Z,101208.23
2022-07-29T12:19:17.520Z,101213.11
2022-07-29T12:20:21.941Z,101210.6
2022-07-29T12:21:30.237Z,101213.27
2022-07-29T12:22:35.471Z,101214.28
2022-07-29T12:23:40.721Z,101213.13
2022-07-29T12:24:47.276Z,101207.52
2022-07-29T12:25:51.687Z,101209.14
2022-07-29T12:26:59.984Z,101203.19
2022-07-29T12:28:06.093Z,101209.58
2022-07-29T12:29:34.023Z,101204.02
2022-07-29T12:30:40.282Z,101201.23
2022-07-29T12:31:48.473Z,101195.45
2022-07-29T12:32:52.985Z,101208.2
2022-07-29T12:33:59.495Z,101192.7
2022-07-29T12:35:03.885Z,101192.94
2022-07-29T12:36:18.295Z,101202.5
2022-07-29T12:37:43.505Z,101196.58
2022-07-29T12:38:49.036Z,101194.29
2022-07-29T12:39:57.223Z,101190.77
2022-07-29T12:41:01.618Z,101188.56
2022-07-29T12:42:14.961Z,101190.69
2022-07-29T12:43:22.146Z,101194.54
2022-07-29T12:44:26.534Z,101191.59
2022-07-29T12:45:30.945Z,101192.7
2022-07-29T12:46:35.501Z,101191.84
2022-07-29T12:47:40.077Z,101190.08
2022-07-29T12:48:44.744Z,101196.85
2022-07-29T12:49:49.387Z,101187.05
2022-07-29T12:50:53.801Z,101185.64
2022-07-29T12:51:58.789Z,101186.58
2022-07-29T12:53:04.265Z,101195.04
2022-07-29T12:54:08.641Z,101177.23
2022-07-29T12:55:13.057Z,101186.36
2022-07-29T12:56:43.942Z,101187.1
2022-07-29T12:57:49.251Z,101177.98
2022-07-29T12:58:53.654Z,101172.72
2022-07-29T12:59:58.062Z,101184.45
2022-07-29T13:01:02.616Z,101184.12
2022-07-29T13:02:07.199Z,101176.2
2022-07-29T13:03:12.091Z,101169.42
2022-07-29T13:04:16.528Z,101184.15
2022-07-29T13:05:20.922Z,101182.56
2022-07-29T13:06:25.987Z,101175.39
2022-07-29T13:08:30.696Z,101174.05
2022-07-29T13:09:35.086Z,101174.54
2022-07-29T13:10:39.507Z,101172.2
2022-07-29T13:11:49.439Z,101177.73
2022-07-29T13:12:53.854Z,101173.11
2022-07-29T13:14:08.103Z,101171.95
2022-07-29T13:15:12.500Z,101173.13
2022-07-29T13:16:19.206Z,101158.36
2022-07-29T13:17:23.682Z,101170.05
2022-07-29T13:18:28.100Z,101161.27
2022-07-29T13:19:34.699Z,101152.55
2022-07-29T13:20:39.082Z,101155.63
2022-07-29T13:21:43.524Z,101157.27
2022-07-29T13:22:47.920Z,101158.17
2022-07-29T13:23:52.317Z,101150.56
2022-07-29T13:24:56.713Z,101159.21
2022-07-29T13:26:01.140Z,101155.77
2022-07-29T13:27:06.843Z,101159.84
2022-07-29T13:28:11.216Z,101164.09
2022-07-29T13:29:16.439Z,101155.75
2022-07-29T13:30:20.833Z,101155.25
2022-07-29T13:31:25.299Z,101150.92
2022-07-29T13:32:30.233Z,101156.08
2022-07-29T13:33:34.644Z,101164.02
2022-07-29T13:34:39.322Z,101152.03
2022-07-29T13:35:43.838Z,101151.53
2022-07-29T13:36:48.209Z,101153.55
2022-07-29T13:37:53.612Z,101146.52
2022-07-29T13:38:58.041Z,101139.16
2022-07-29T13:40:02.438Z,101136.68
2022-07-29T13:41:07.055Z,101138.51
2022-07-29T13:42:12.198Z,101141.22
2022-07-29T13:43:17.633Z,101146.89
2022-07-29T13:44:22.071Z,101145.95
2022-07-29T13:45:30.038Z,101143.73
2022-07-29T13:46:34.452Z,101143.77
2022-07-29T13:47:50.181Z,101140.81
2022-07-29T13:48:54.668Z,101134.2
2022-07-29T13:49:59.607Z,101135.23
2022-07-29T13:51:03.992Z,101131.61
2022-07-29T13:52:08.587Z,101128.53
2022-07-29T13:53:19.123Z,101130.33
2022-07-29T13:54:31.142Z,101129.95
2022-07-29T13:55:35.519Z,101130.31
2022-07-29T13:56:39.906Z,101135.83
2022-07-29T13:57:44.281Z,101129.36